sensor_id;sensor_type;location;lat;lon;timestamp;P1;durP1;ratioP1;P2;durP2;ratioP2
51800;SDS011;37855;53.204;6.568;2024-02-21T00:00:55;15.25;;;3.65;;
51800;SDS011;37855;53.204;6.568;2024-02-21T00:03:22;16.52;;;3.85;;
51800;SDS011;37855;53.204;6.568;2024-02-21T00:05:47;13.90;;;3.57;;
51800;SDS011;37855;53.204;6.568;2024-02-21T00:08:13;15.90;;;3.40;;
51800;SDS011;37855;53.204;6.568;2024-02-21T00:10:39;21.33;;;3.67;;
51800;SDS011;37855;53.204;6.568;2024-02-21T00:13:04;16.67;;;4.00;;
51800;SDS011;37855;53.204;6.568;2024-02-21T00:15:30;15.43;;;3.50;;
51800;SDS011;37855;53.204;6.568;2024-02-21T00:17:59;13.98;;;3.60;;
51800;SDS011;37855;53.204;6.568;2024-02-21T00:20:24;14.37;;;3.67;;
51800;SDS011;37855;53.204;6.568;2024-02-21T00:22:51;17.73;;;3.88;;
51800;SDS011;37855;53.204;6.568;2024-02-21T00:25:16;15.73;;;3.75;;
51800;SDS011;37855;53.204;6.568;2024-02-21T00:27:42;18.43;;;3.60;;
51800;SDS011;37855;53.204;6.568;2024-02-21T00:30:09;11.80;;;3.00;;
51800;SDS011;37855;53.204;6.568;2024-02-21T00:32:35;16.67;;;3.67;;
51800;SDS011;37855;53.204;6.568;2024-02-21T00:35:01;16.73;;;3.33;;
51800;SDS011;37855;53.204;6.568;2024-02-21T00:37:29;12.88;;;3.50;;
51800;SDS011;37855;53.204;6.568;2024-02-21T00:39:56;13.23;;;3.97;;
51800;SDS011;37855;53.204;6.568;2024-02-21T00:42:21;12.97;;;3.53;;
51800;SDS011;37855;53.204;6.568;2024-02-21T00:44:47;14.50;;;3.47;;
51800;SDS011;37855;53.204;6.568;2024-02-21T00:47:13;18.03;;;3.80;;
51800;SDS011;37855;53.204;6.568;2024-02-21T00:49:38;17.67;;;4.35;;
51800;SDS011;37855;53.204;6.568;2024-02-21T00:52:04;15.73;;;3.83;;
51800;SDS011;37855;53.204;6.568;2024-02-21T00:54:29;18.88;;;4.63;;
51800;SDS011;37855;53.204;6.568;2024-02-21T00:56:55;19.80;;;4.40;;
51800;SDS011;37855;53.204;6.568;2024-02-21T00:59:20;16.23;;;4.87;;
51800;SDS011;37855;53.204;6.568;2024-02-21T01:01:46;16.92;;;3.78;;
51800;SDS011;37855;53.204;6.568;2024-02-21T01:04:12;19.53;;;4.07;;
51800;SDS011;37855;53.204;6.568;2024-02-21T01:06:37;18.75;;;4.60;;
51800;SDS011;37855;53.204;6.568;2024-02-21T01:09:03;19.33;;;4.70;;
51800;SDS011;37855;53.204;6.568;2024-02-21T01:11:29;14.13;;;3.90;;
51800;SDS011;37855;53.204;6.568;2024-02-21T01:13:55;17.77;;;4.70;;
51800;SDS011;37855;53.204;6.568;2024-02-21T01:16:20;19.63;;;4.63;;
51800;SDS011;37855;53.204;6.568;2024-02-21T01:18:49;23.23;;;4.57;;
51800;SDS011;37855;53.204;6.568;2024-02-21T01:21:15;17.43;;;5.10;;
51800;SDS011;37855;53.204;6.568;2024-02-21T01:23:40;15.73;;;4.43;;
51800;SDS011;37855;53.204;6.568;2024-02-21T01:26:06;17.27;;;4.83;;
51800;SDS011;37855;53.204;6.568;2024-02-21T01:28:33;22.10;;;5.18;;
51800;SDS011;37855;53.204;6.568;2024-02-21T01:30:59;19.35;;;4.63;;
51800;SDS011;37855;53.204;6.568;2024-02-21T01:33:25;18.40;;;5.20;;
51800;SDS011;37855;53.204;6.568;2024-02-21T01:35:50;30.03;;;5.47;;
51800;SDS011;37855;53.204;6.568;2024-02-21T01:38:16;16.90;;;5.22;;
51800;SDS011;37855;53.204;6.568;2024-02-21T01:40:42;20.60;;;6.43;;
51800;SDS011;37855;53.204;6.568;2024-02-21T01:43:17;16.70;;;5.57;;
51800;SDS011;37855;53.204;6.568;2024-02-21T01:45:45;14.10;;;5.30;;
51800;SDS011;37855;53.204;6.568;2024-02-21T01:48:14;18.13;;;5.67;;
51800;SDS011;37855;53.204;6.568;2024-02-21T01:50:40;20.90;;;6.07;;
51800;SDS011;37855;53.204;6.568;2024-02-21T01:53:06;18.08;;;5.53;;
51800;SDS011;37855;53.204;6.568;2024-02-21T01:55:32;15.57;;;5.20;;
51800;SDS011;37855;53.204;6.568;2024-02-21T01:57:59;10.75;;;5.25;;
51800;SDS011;37855;53.204;6.568;2024-02-21T02:00:25;14.85;;;5.03;;
51800;SDS011;37855;53.204;6.568;2024-02-21T02:02:51;11.23;;;4.82;;
51800;SDS011;37855;53.204;6.568;2024-02-21T02:05:17;12.47;;;4.93;;
51800;SDS011;37855;53.204;6.568;2024-02-21T02:07:46;12.18;;;4.60;;
51800;SDS011;37855;53.204;6.568;2024-02-21T02:10:11;15.82;;;4.97;;
51800;SDS011;37855;53.204;6.568;2024-02-21T02:12:37;15.75;;;5.65;;
51800;SDS011;37855;53.204;6.568;2024-02-21T02:15:03;12.43;;;4.63;;
51800;SDS011;37855;53.204;6.568;2024-02-21T02:17:30;18.70;;;5.25;;
51800;SDS011;37855;53.204;6.568;2024-02-21T02:19:58;16.05;;;4.90;;
51800;SDS011;37855;53.204;6.568;2024-02-21T02:22:27;15.33;;;4.47;;
51800;SDS011;37855;53.204;6.568;2024-02-21T02:24:55;16.40;;;4.82;;
51800;SDS011;37855;53.204;6.568;2024-02-21T02:27:21;11.50;;;4.70;;
51800;SDS011;37855;53.204;6.568;2024-02-21T02:29:48;15.23;;;4.70;;
51800;SDS011;37855;53.204;6.568;2024-02-21T02:32:13;12.55;;;3.80;;
51800;SDS011;37855;53.204;6.568;2024-02-21T02:34:42;16.43;;;4.23;;
51800;SDS011;37855;53.204;6.568;2024-02-21T02:37:08;13.63;;;4.20;;
51800;SDS011;37855;53.204;6.568;2024-02-21T02:39:34;19.40;;;4.40;;
51800;SDS011;37855;53.204;6.568;2024-02-21T02:41:59;13.32;;;3.80;;
51800;SDS011;37855;53.204;6.568;2024-02-21T02:44:25;14.37;;;3.67;;
51800;SDS011;37855;53.204;6.568;2024-02-21T02:46:51;13.32;;;4.20;;
51800;SDS011;37855;53.204;6.568;2024-02-21T02:49:16;12.57;;;3.60;;
51800;SDS011;37855;53.204;6.568;2024-02-21T02:51:43;18.58;;;3.83;;
51800;SDS011;37855;53.204;6.568;2024-02-21T02:54:08;19.23;;;4.63;;
51800;SDS011;37855;53.204;6.568;2024-02-21T02:56:34;17.23;;;4.37;;
51800;SDS011;37855;53.204;6.568;2024-02-21T02:59:00;18.65;;;5.55;;
51800;SDS011;37855;53.204;6.568;2024-02-21T03:01:28;21.02;;;4.43;;
51800;SDS011;37855;53.204;6.568;2024-02-21T03:04:04;19.35;;;4.35;;
51800;SDS011;37855;53.204;6.568;2024-02-21T03:06:29;20.00;;;4.95;;
51800;SDS011;37855;53.204;6.568;2024-02-21T03:08:55;22.97;;;4.67;;
51800;SDS011;37855;53.204;6.568;2024-02-21T03:11:21;23.50;;;5.03;;
51800;SDS011;37855;53.204;6.568;2024-02-21T03:13:53;19.50;;;4.83;;
51800;SDS011;37855;53.204;6.568;2024-02-21T03:16:20;18.70;;;4.88;;
51800;SDS011;37855;53.204;6.568;2024-02-21T03:18:46;19.05;;;4.38;;
51800;SDS011;37855;53.204;6.568;2024-02-21T03:21:12;23.30;;;5.00;;
51800;SDS011;37855;53.204;6.568;2024-02-21T03:23:37;17.53;;;4.70;;
51800;SDS011;37855;53.204;6.568;2024-02-21T03:26:03;21.33;;;4.70;;
51800;SDS011;37855;53.204;6.568;2024-02-21T03:28:28;16.70;;;4.53;;
51800;SDS011;37855;53.204;6.568;2024-02-21T03:30:54;21.10;;;5.60;;
51800;SDS011;37855;53.204;6.568;2024-02-21T03:33:20;21.83;;;4.80;;
51800;SDS011;37855;53.204;6.568;2024-02-21T03:35:46;19.00;;;4.63;;
51800;SDS011;37855;53.204;6.568;2024-02-21T03:38:11;25.20;;;4.93;;
51800;SDS011;37855;53.204;6.568;2024-02-21T03:40:37;18.80;;;6.07;;
51800;SDS011;37855;53.204;6.568;2024-02-21T03:43:02;22.17;;;5.60;;
51800;SDS011;37855;53.204;6.568;2024-02-21T03:45:28;21.80;;;4.83;;
51800;SDS011;37855;53.204;6.568;2024-02-21T03:47:54;27.58;;;4.78;;
51800;SDS011;37855;53.204;6.568;2024-02-21T03:50:20;24.88;;;4.90;;
51800;SDS011;37855;53.204;6.568;2024-02-21T03:52:46;21.73;;;4.47;;
51800;SDS011;37855;53.204;6.568;2024-02-21T03:55:11;19.92;;;4.93;;
51800;SDS011;37855;53.204;6.568;2024-02-21T03:57:38;29.30;;;5.53;;
51800;SDS011;37855;53.204;6.568;2024-02-21T04:00:04;20.42;;;4.85;;
51800;SDS011;37855;53.204;6.568;2024-02-21T04:02:34;25.55;;;5.32;;
51800;SDS011;37855;53.204;6.568;2024-02-21T04:05:03;20.33;;;5.10;;
51800;SDS011;37855;53.204;6.568;2024-02-21T04:07:29;24.03;;;5.37;;
51800;SDS011;37855;53.204;6.568;2024-02-21T04:09:54;22.90;;;5.20;;
51800;SDS011;37855;53.204;6.568;2024-02-21T04:12:20;24.77;;;5.77;;
51800;SDS011;37855;53.204;6.568;2024-02-21T04:14:46;24.07;;;5.50;;
51800;SDS011;37855;53.204;6.568;2024-02-21T04:17:11;22.75;;;4.72;;
51800;SDS011;37855;53.204;6.568;2024-02-21T04:19:37;20.87;;;4.77;;
51800;SDS011;37855;53.204;6.568;2024-02-21T04:22:03;18.92;;;5.30;;
51800;SDS011;37855;53.204;6.568;2024-02-21T04:24:29;22.57;;;5.73;;
51800;SDS011;37855;53.204;6.568;2024-02-21T04:26:54;21.15;;;5.50;;
51800;SDS011;37855;53.204;6.568;2024-02-21T04:29:20;20.30;;;5.07;;
51800;SDS011;37855;53.204;6.568;2024-02-21T04:31:45;26.87;;;6.13;;
51800;SDS011;37855;53.204;6.568;2024-02-21T04:34:11;24.87;;;5.50;;
51800;SDS011;37855;53.204;6.568;2024-02-21T04:36:37;23.43;;;5.40;;
51800;SDS011;37855;53.204;6.568;2024-02-21T04:39:05;26.73;;;5.60;;
51800;SDS011;37855;53.204;6.568;2024-02-21T04:41:32;24.27;;;5.32;;
51800;SDS011;37855;53.204;6.568;2024-02-21T04:43:58;22.23;;;6.30;;
51800;SDS011;37855;53.204;6.568;2024-02-21T04:46:24;21.23;;;5.30;;
51800;SDS011;37855;53.204;6.568;2024-02-21T04:48:50;20.27;;;5.47;;
51800;SDS011;37855;53.204;6.568;2024-02-21T04:51:15;19.67;;;5.20;;
51800;SDS011;37855;53.204;6.568;2024-02-21T04:53:41;19.43;;;5.40;;
51800;SDS011;37855;53.204;6.568;2024-02-21T04:56:06;20.67;;;5.00;;
51800;SDS011;37855;53.204;6.568;2024-02-21T04:58:38;21.45;;;5.50;;
51800;SDS011;37855;53.204;6.568;2024-02-21T05:01:06;20.27;;;4.87;;
51800;SDS011;37855;53.204;6.568;2024-02-21T05:03:32;20.25;;;5.50;;
51800;SDS011;37855;53.204;6.568;2024-02-21T05:05:58;24.40;;;5.47;;
51800;SDS011;37855;53.204;6.568;2024-02-21T05:08:24;20.87;;;5.27;;
51800;SDS011;37855;53.204;6.568;2024-02-21T05:10:50;24.25;;;5.97;;
51800;SDS011;37855;53.204;6.568;2024-02-21T05:13:15;24.97;;;5.63;;
51800;SDS011;37855;53.204;6.568;2024-02-21T05:15:42;24.25;;;5.30;;
51800;SDS011;37855;53.204;6.568;2024-02-21T05:18:08;28.30;;;6.23;;
51800;SDS011;37855;53.204;6.568;2024-02-21T05:20:33;24.13;;;5.30;;
51800;SDS011;37855;53.204;6.568;2024-02-21T05:23:00;23.03;;;5.77;;
51800;SDS011;37855;53.204;6.568;2024-02-21T05:25:26;21.63;;;5.35;;
51800;SDS011;37855;53.204;6.568;2024-02-21T05:27:51;20.77;;;4.97;;
51800;SDS011;37855;53.204;6.568;2024-02-21T05:30:24;21.63;;;5.28;;
51800;SDS011;37855;53.204;6.568;2024-02-21T05:32:49;22.53;;;5.20;;
51800;SDS011;37855;53.204;6.568;2024-02-21T05:35:15;23.38;;;5.18;;
51800;SDS011;37855;53.204;6.568;2024-02-21T05:37:41;27.30;;;5.73;;
51800;SDS011;37855;53.204;6.568;2024-02-21T05:40:06;29.90;;;5.28;;
51800;SDS011;37855;53.204;6.568;2024-02-21T05:42:32;25.42;;;5.85;;
51800;SDS011;37855;53.204;6.568;2024-02-21T05:44:58;26.33;;;5.37;;
51800;SDS011;37855;53.204;6.568;2024-02-21T05:47:24;28.37;;;5.23;;
51800;SDS011;37855;53.204;6.568;2024-02-21T05:49:49;21.67;;;5.78;;
51800;SDS011;37855;53.204;6.568;2024-02-21T05:52:18;29.48;;;5.70;;
51800;SDS011;37855;53.204;6.568;2024-02-21T05:54:44;23.07;;;5.30;;
51800;SDS011;37855;53.204;6.568;2024-02-21T05:57:11;14.60;;;4.77;;
51800;SDS011;37855;53.204;6.568;2024-02-21T05:59:38;23.73;;;4.97;;
51800;SDS011;37855;53.204;6.568;2024-02-21T06:02:08;21.50;;;5.32;;
51800;SDS011;37855;53.204;6.568;2024-02-21T06:04:35;17.80;;;4.70;;
51800;SDS011;37855;53.204;6.568;2024-02-21T06:07:04;20.03;;;5.23;;
51800;SDS011;37855;53.204;6.568;2024-02-21T06:09:33;25.80;;;5.97;;
51800;SDS011;37855;53.204;6.568;2024-02-21T06:12:01;24.77;;;5.20;;
51800;SDS011;37855;53.204;6.568;2024-02-21T06:14:27;20.25;;;5.55;;
51800;SDS011;37855;53.204;6.568;2024-02-21T06:16:53;19.00;;;4.73;;
51800;SDS011;37855;53.204;6.568;2024-02-21T06:19:18;22.87;;;5.50;;
51800;SDS011;37855;53.204;6.568;2024-02-21T06:21:44;21.70;;;5.72;;
51800;SDS011;37855;53.204;6.568;2024-02-21T06:24:11;24.83;;;4.67;;
51800;SDS011;37855;53.204;6.568;2024-02-21T06:26:37;23.85;;;5.35;;
51800;SDS011;37855;53.204;6.568;2024-02-21T06:29:05;18.63;;;5.22;;
51800;SDS011;37855;53.204;6.568;2024-02-21T06:31:31;26.00;;;5.40;;
51800;SDS011;37855;53.204;6.568;2024-02-21T06:33:57;24.92;;;6.07;;
51800;SDS011;37855;53.204;6.568;2024-02-21T06:36:22;19.25;;;5.25;;
51800;SDS011;37855;53.204;6.568;2024-02-21T06:38:48;20.17;;;4.77;;
51800;SDS011;37855;53.204;6.568;2024-02-21T06:41:16;19.83;;;5.63;;
51800;SDS011;37855;53.204;6.568;2024-02-21T06:43:44;26.35;;;6.40;;
51800;SDS011;37855;53.204;6.568;2024-02-21T06:46:10;20.03;;;5.80;;
51800;SDS011;37855;53.204;6.568;2024-02-21T06:48:36;21.63;;;5.22;;
51800;SDS011;37855;53.204;6.568;2024-02-21T06:51:04;20.98;;;5.85;;
51800;SDS011;37855;53.204;6.568;2024-02-21T06:53:30;21.98;;;5.70;;
51800;SDS011;37855;53.204;6.568;2024-02-21T06:55:55;21.03;;;5.70;;
51800;SDS011;37855;53.204;6.568;2024-02-21T06:58:21;26.40;;;5.90;;
51800;SDS011;37855;53.204;6.568;2024-02-21T07:00:47;22.57;;;5.90;;
51800;SDS011;37855;53.204;6.568;2024-02-21T07:03:12;21.90;;;5.87;;
51800;SDS011;37855;53.204;6.568;2024-02-21T07:05:38;23.45;;;5.97;;
51800;SDS011;37855;53.204;6.568;2024-02-21T07:08:03;24.53;;;6.60;;
51800;SDS011;37855;53.204;6.568;2024-02-21T07:10:29;24.70;;;6.72;;
51800;SDS011;37855;53.204;6.568;2024-02-21T07:12:55;23.63;;;5.90;;
51800;SDS011;37855;53.204;6.568;2024-02-21T07:15:21;29.67;;;6.90;;
51800;SDS011;37855;53.204;6.568;2024-02-21T07:17:46;25.17;;;7.73;;
51800;SDS011;37855;53.204;6.568;2024-02-21T07:20:12;41.35;;;9.27;;
51800;SDS011;37855;53.204;6.568;2024-02-21T07:22:37;32.53;;;9.90;;
51800;SDS011;37855;53.204;6.568;2024-02-21T07:25:03;34.47;;;9.88;;
51800;SDS011;37855;53.204;6.568;2024-02-21T07:27:29;42.17;;;11.50;;
51800;SDS011;37855;53.204;6.568;2024-02-21T07:30:00;38.67;;;12.32;;
51800;SDS011;37855;53.204;6.568;2024-02-21T07:32:25;38.25;;;12.25;;
51800;SDS011;37855;53.204;6.568;2024-02-21T07:34:53;44.37;;;11.23;;
51800;SDS011;37855;53.204;6.568;2024-02-21T07:37:19;38.47;;;11.63;;
51800;SDS011;37855;53.204;6.568;2024-02-21T07:39:44;38.60;;;10.53;;
51800;SDS011;37855;53.204;6.568;2024-02-21T07:42:10;48.05;;;11.85;;
51800;SDS011;37855;53.204;6.568;2024-02-21T07:44:36;38.13;;;9.63;;
51800;SDS011;37855;53.204;6.568;2024-02-21T07:47:01;36.90;;;10.07;;
51800;SDS011;37855;53.204;6.568;2024-02-21T07:49:27;34.65;;;9.40;;
51800;SDS011;37855;53.204;6.568;2024-02-21T07:51:53;32.10;;;9.10;;
51800;SDS011;37855;53.204;6.568;2024-02-21T07:54:18;27.05;;;8.68;;
51800;SDS011;37855;53.204;6.568;2024-02-21T07:56:44;30.23;;;8.17;;
51800;SDS011;37855;53.204;6.568;2024-02-21T07:59:09;22.98;;;7.22;;
51800;SDS011;37855;53.204;6.568;2024-02-21T08:01:35;30.33;;;7.30;;
51800;SDS011;37855;53.204;6.568;2024-02-21T08:04:04;28.20;;;6.90;;
51800;SDS011;37855;53.204;6.568;2024-02-21T08:06:29;25.43;;;6.73;;
51800;SDS011;37855;53.204;6.568;2024-02-21T08:08:55;22.52;;;6.15;;
51800;SDS011;37855;53.204;6.568;2024-02-21T08:11:22;21.77;;;5.22;;
51800;SDS011;37855;53.204;6.568;2024-02-21T08:13:47;22.80;;;5.37;;
51800;SDS011;37855;53.204;6.568;2024-02-21T08:16:13;16.70;;;5.28;;
51800;SDS011;37855;53.204;6.568;2024-02-21T08:18:39;17.23;;;5.10;;
51800;SDS011;37855;53.204;6.568;2024-02-21T08:21:05;19.40;;;5.07;;
51800;SDS011;37855;53.204;6.568;2024-02-21T08:23:30;17.17;;;4.80;;
51800;SDS011;37855;53.204;6.568;2024-02-21T08:25:57;14.95;;;4.45;;
51800;SDS011;37855;53.204;6.568;2024-02-21T08:28:22;16.07;;;4.37;;
51800;SDS011;37855;53.204;6.568;2024-02-21T08:30:48;14.97;;;4.70;;
51800;SDS011;37855;53.204;6.568;2024-02-21T08:33:16;18.23;;;4.70;;
51800;SDS011;37855;53.204;6.568;2024-02-21T08:35:49;15.18;;;4.65;;
51800;SDS011;37855;53.204;6.568;2024-02-21T08:38:15;17.27;;;4.97;;
51800;SDS011;37855;53.204;6.568;2024-02-21T08:40:40;19.30;;;5.40;;
51800;SDS011;37855;53.204;6.568;2024-02-21T08:43:06;18.23;;;5.07;;
51800;SDS011;37855;53.204;6.568;2024-02-21T08:45:32;16.50;;;5.00;;
51800;SDS011;37855;53.204;6.568;2024-02-21T08:47:57;20.63;;;5.43;;
51800;SDS011;37855;53.204;6.568;2024-02-21T08:50:26;18.02;;;5.00;;
51800;SDS011;37855;53.204;6.568;2024-02-21T08:52:51;14.70;;;4.93;;
51800;SDS011;37855;53.204;6.568;2024-02-21T08:55:17;22.30;;;6.17;;
51800;SDS011;37855;53.204;6.568;2024-02-21T08:57:42;14.13;;;5.43;;
51800;SDS011;37855;53.204;6.568;2024-02-21T09:00:08;18.38;;;5.97;;
51800;SDS011;37855;53.204;6.568;2024-02-21T09:02:35;20.38;;;6.90;;
51800;SDS011;37855;53.204;6.568;2024-02-21T09:05:03;20.17;;;7.57;;
51800;SDS011;37855;53.204;6.568;2024-02-21T09:07:30;18.38;;;7.10;;
51800;SDS011;37855;53.204;6.568;2024-02-21T09:09:56;18.45;;;6.63;;
51800;SDS011;37855;53.204;6.568;2024-02-21T09:12:21;22.43;;;8.77;;
51800;SDS011;37855;53.204;6.568;2024-02-21T09:14:47;21.48;;;8.27;;
51800;SDS011;37855;53.204;6.568;2024-02-21T09:17:15;24.83;;;9.38;;
51800;SDS011;37855;53.204;6.568;2024-02-21T09:19:45;22.15;;;9.30;;
51800;SDS011;37855;53.204;6.568;2024-02-21T09:22:13;25.05;;;9.63;;
51800;SDS011;37855;53.204;6.568;2024-02-21T09:24:38;23.97;;;10.20;;
51800;SDS011;37855;53.204;6.568;2024-02-21T09:27:43;22.33;;;10.25;;
51800;SDS011;37855;53.204;6.568;2024-02-21T09:30:12;26.17;;;10.20;;
51800;SDS011;37855;53.204;6.568;2024-02-21T09:32:38;27.93;;;11.07;;
51800;SDS011;37855;53.204;6.568;2024-02-21T09:35:04;23.33;;;11.37;;
51800;SDS011;37855;53.204;6.568;2024-02-21T09:37:32;21.60;;;10.30;;
51800;SDS011;37855;53.204;6.568;2024-02-21T09:39:58;24.20;;;11.03;;
51800;SDS011;37855;53.204;6.568;2024-02-21T09:42:29;23.15;;;10.18;;
51800;SDS011;37855;53.204;6.568;2024-02-21T09:45:03;22.00;;;10.65;;
51800;SDS011;37855;53.204;6.568;2024-02-21T09:47:34;22.53;;;11.03;;
51800;SDS011;37855;53.204;6.568;2024-02-21T09:50:23;23.98;;;10.68;;
51800;SDS011;37855;53.204;6.568;2024-02-21T09:52:51;20.10;;;10.93;;
51800;SDS011;37855;53.204;6.568;2024-02-21T09:55:19;24.83;;;11.93;;
51800;SDS011;37855;53.204;6.568;2024-02-21T09:57:46;25.15;;;12.43;;
51800;SDS011;37855;53.204;6.568;2024-02-21T10:00:13;24.43;;;11.30;;
51800;SDS011;37855;53.204;6.568;2024-02-21T10:02:47;23.63;;;10.70;;
51800;SDS011;37855;53.204;6.568;2024-02-21T10:05:14;22.35;;;10.98;;
51800;SDS011;37855;53.204;6.568;2024-02-21T10:07:40;21.50;;;10.53;;
51800;SDS011;37855;53.204;6.568;2024-02-21T10:10:06;20.77;;;11.20;;
51800;SDS011;37855;53.204;6.568;2024-02-21T10:12:32;20.92;;;10.45;;
51800;SDS011;37855;53.204;6.568;2024-02-21T10:15:05;21.02;;;10.73;;
51800;SDS011;37855;53.204;6.568;2024-02-21T10:17:33;20.35;;;10.48;;
51800;SDS011;37855;53.204;6.568;2024-02-21T10:20:09;25.63;;;11.07;;
51800;SDS011;37855;53.204;6.568;2024-02-21T10:22:35;20.55;;;10.77;;
51800;SDS011;37855;53.204;6.568;2024-02-21T10:25:10;23.15;;;11.32;;
51800;SDS011;37855;53.204;6.568;2024-02-21T10:27:38;26.88;;;11.45;;
51800;SDS011;37855;53.204;6.568;2024-02-21T10:30:07;24.25;;;11.45;;
51800;SDS011;37855;53.204;6.568;2024-02-21T10:32:49;22.17;;;11.93;;
51800;SDS011;37855;53.204;6.568;2024-02-21T10:35:33;21.55;;;11.73;;
51800;SDS011;37855;53.204;6.568;2024-02-21T10:38:02;23.38;;;12.25;;
51800;SDS011;37855;53.204;6.568;2024-02-21T10:40:29;25.83;;;11.75;;
51800;SDS011;37855;53.204;6.568;2024-02-21T10:43:00;29.55;;;14.88;;
51800;SDS011;37855;53.204;6.568;2024-02-21T10:45:31;23.07;;;12.77;;
51800;SDS011;37855;53.204;6.568;2024-02-21T10:48:11;21.33;;;13.40;;
51800;SDS011;37855;53.204;6.568;2024-02-21T10:50:47;25.63;;;13.27;;
51800;SDS011;37855;53.204;6.568;2024-02-21T10:56:22;29.08;;;13.68;;
51800;SDS011;37855;53.204;6.568;2024-02-21T10:58:53;24.57;;;13.83;;
51800;SDS011;37855;53.204;6.568;2024-02-21T11:01:21;27.48;;;14.07;;
51800;SDS011;37855;53.204;6.568;2024-02-21T11:03:48;26.25;;;13.57;;
51800;SDS011;37855;53.204;6.568;2024-02-21T11:06:18;22.75;;;13.05;;
51800;SDS011;37855;53.204;6.568;2024-02-21T11:08:46;22.88;;;13.00;;
51800;SDS011;37855;53.204;6.568;2024-02-21T11:11:14;25.57;;;12.90;;
51800;SDS011;37855;53.204;6.568;2024-02-21T11:13:43;25.63;;;13.38;;
51800;SDS011;37855;53.204;6.568;2024-02-21T11:16:22;27.45;;;13.68;;
51800;SDS011;37855;53.204;6.568;2024-02-21T11:18:48;24.40;;;13.07;;
51800;SDS011;37855;53.204;6.568;2024-02-21T11:21:14;25.38;;;13.30;;
51800;SDS011;37855;53.204;6.568;2024-02-21T11:23:41;25.60;;;12.73;;
51800;SDS011;37855;53.204;6.568;2024-02-21T11:26:10;22.90;;;12.45;;
51800;SDS011;37855;53.204;6.568;2024-02-21T11:28:55;23.60;;;10.95;;
51800;SDS011;37855;53.204;6.568;2024-02-21T11:31:25;21.02;;;12.40;;
51800;SDS011;37855;53.204;6.568;2024-02-21T11:33:54;23.45;;;11.40;;
51800;SDS011;37855;53.204;6.568;2024-02-21T11:36:25;21.70;;;11.07;;
51800;SDS011;37855;53.204;6.568;2024-02-21T11:38:52;19.83;;;10.75;;
51800;SDS011;37855;53.204;6.568;2024-02-21T11:41:21;18.13;;;10.23;;
51800;SDS011;37855;53.204;6.568;2024-02-21T11:43:48;18.60;;;9.97;;
51800;SDS011;37855;53.204;6.568;2024-02-21T11:46:15;19.42;;;10.48;;
51800;SDS011;37855;53.204;6.568;2024-02-21T11:48:42;17.55;;;9.95;;
51800;SDS011;37855;53.204;6.568;2024-02-21T11:51:20;18.25;;;9.93;;
51800;SDS011;37855;53.204;6.568;2024-02-21T11:53:47;18.83;;;9.90;;
51800;SDS011;37855;53.204;6.568;2024-02-21T11:56:13;15.73;;;9.65;;
51800;SDS011;37855;53.204;6.568;2024-02-21T11:58:39;16.05;;;9.63;;
51800;SDS011;37855;53.204;6.568;2024-02-21T12:01:05;14.97;;;9.13;;
51800;SDS011;37855;53.204;6.568;2024-02-21T12:03:32;18.65;;;9.05;;
51800;SDS011;37855;53.204;6.568;2024-02-21T12:06:00;22.15;;;12.00;;
51800;SDS011;37855;53.204;6.568;2024-02-21T12:08:40;17.10;;;9.10;;
51800;SDS011;37855;53.204;6.568;2024-02-21T12:11:21;18.92;;;9.32;;
51800;SDS011;37855;53.204;6.568;2024-02-21T12:14:08;17.95;;;9.82;;
51800;SDS011;37855;53.204;6.568;2024-02-21T12:16:34;17.10;;;8.20;;
51800;SDS011;37855;53.204;6.568;2024-02-21T12:19:04;17.92;;;9.13;;
51800;SDS011;37855;53.204;6.568;2024-02-21T12:21:30;18.43;;;8.37;;
51800;SDS011;37855;53.204;6.568;2024-02-21T12:23:57;18.63;;;8.23;;
51800;SDS011;37855;53.204;6.568;2024-02-21T12:26:23;17.83;;;8.43;;
51800;SDS011;37855;53.204;6.568;2024-02-21T12:35:52;15.67;;;7.50;;
51800;SDS011;37855;53.204;6.568;2024-02-21T12:38:20;15.40;;;7.50;;
51800;SDS011;37855;53.204;6.568;2024-02-21T12:40:45;15.45;;;6.88;;
51800;SDS011;37855;53.204;6.568;2024-02-21T12:43:17;17.67;;;7.30;;
51800;SDS011;37855;53.204;6.568;2024-02-21T12:45:49;16.13;;;7.47;;
51800;SDS011;37855;53.204;6.568;2024-02-21T12:48:21;15.23;;;6.97;;
51800;SDS011;37855;53.204;6.568;2024-02-21T13:59:19;9.70;;;5.50;;
51800;SDS011;37855;53.204;6.568;2024-02-21T14:17:47;9.40;;;4.60;;
51800;SDS011;37855;53.204;6.568;2024-02-21T14:20:48;10.10;;;5.30;;
51800;SDS011;37855;53.204;6.568;2024-02-21T14:23:34;8.65;;;5.57;;
51800;SDS011;37855;53.204;6.568;2024-02-21T14:26:06;9.43;;;5.40;;
51800;SDS011;37855;53.204;6.568;2024-02-21T14:28:32;8.60;;;4.57;;
51800;SDS011;37855;53.204;6.568;2024-02-21T14:31:01;9.80;;;5.35;;
51800;SDS011;37855;53.204;6.568;2024-02-21T14:37:22;10.73;;;5.13;;
51800;SDS011;37855;53.204;6.568;2024-02-21T14:39:48;14.30;;;5.47;;
51800;SDS011;37855;53.204;6.568;2024-02-21T14:42:23;8.80;;;5.27;;
51800;SDS011;37855;53.204;6.568;2024-02-21T14:51:28;9.95;;;5.20;;
51800;SDS011;37855;53.204;6.568;2024-02-21T14:54:05;13.53;;;6.30;;
51800;SDS011;37855;53.204;6.568;2024-02-21T14:56:31;13.57;;;6.22;;
51800;SDS011;37855;53.204;6.568;2024-02-21T14:59:09;10.20;;;5.37;;
51800;SDS011;37855;53.204;6.568;2024-02-21T15:05:18;11.20;;;5.40;;
51800;SDS011;37855;53.204;6.568;2024-02-21T15:08:52;11.38;;;6.00;;
51800;SDS011;37855;53.204;6.568;2024-02-21T15:12:14;13.05;;;5.45;;
51800;SDS011;37855;53.204;6.568;2024-02-21T15:14:40;13.33;;;5.17;;
51800;SDS011;37855;53.204;6.568;2024-02-21T15:17:05;11.27;;;5.25;;
51800;SDS011;37855;53.204;6.568;2024-02-21T15:19:34;12.83;;;5.53;;
51800;SDS011;37855;53.204;6.568;2024-02-21T15:22:02;9.63;;;5.35;;
51800;SDS011;37855;53.204;6.568;2024-02-21T15:54:56;8.68;;;4.93;;
51800;SDS011;37855;53.204;6.568;2024-02-21T16:10:03;14.38;;;7.05;;
51800;SDS011;37855;53.204;6.568;2024-02-21T16:16:24;12.52;;;5.60;;
51800;SDS011;37855;53.204;6.568;2024-02-21T16:18:51;12.50;;;5.07;;
51800;SDS011;37855;53.204;6.568;2024-02-21T16:21:17;11.20;;;5.55;;
51800;SDS011;37855;53.204;6.568;2024-02-21T16:23:43;10.68;;;4.93;;
51800;SDS011;37855;53.204;6.568;2024-02-21T16:26:08;13.63;;;5.57;;
51800;SDS011;37855;53.204;6.568;2024-02-21T16:28:35;12.98;;;5.35;;
51800;SDS011;37855;53.204;6.568;2024-02-21T16:31:00;13.47;;;5.23;;
51800;SDS011;37855;53.204;6.568;2024-02-21T16:33:29;12.18;;;5.40;;
51800;SDS011;37855;53.204;6.568;2024-02-21T16:35:54;16.52;;;5.88;;
51800;SDS011;37855;53.204;6.568;2024-02-21T16:38:20;10.27;;;5.63;;
51800;SDS011;37855;53.204;6.568;2024-02-21T16:40:46;12.03;;;5.73;;
51800;SDS011;37855;53.204;6.568;2024-02-21T16:43:12;18.67;;;5.67;;
51800;SDS011;37855;53.204;6.568;2024-02-21T16:45:38;15.38;;;6.10;;
51800;SDS011;37855;53.204;6.568;2024-02-21T16:48:09;11.50;;;5.30;;
51800;SDS011;37855;53.204;6.568;2024-02-21T16:50:34;10.60;;;5.43;;
51800;SDS011;37855;53.204;6.568;2024-02-21T16:53:04;12.50;;;5.30;;
51800;SDS011;37855;53.204;6.568;2024-02-21T16:55:30;11.37;;;5.07;;
51800;SDS011;37855;53.204;6.568;2024-02-21T16:57:59;10.75;;;5.72;;
51800;SDS011;37855;53.204;6.568;2024-02-21T17:00:29;15.70;;;5.18;;
51800;SDS011;37855;53.204;6.568;2024-02-21T17:02:55;12.60;;;5.37;;
51800;SDS011;37855;53.204;6.568;2024-02-21T17:11:02;15.13;;;5.38;;
51800;SDS011;37855;53.204;6.568;2024-02-21T17:13:28;11.88;;;5.63;;
51800;SDS011;37855;53.204;6.568;2024-02-21T17:15:56;13.30;;;5.43;;
51800;SDS011;37855;53.204;6.568;2024-02-21T17:18:22;13.50;;;5.30;;